createdAt,value
2016-03-15T00:00:52.842Z,5.94
2016-03-15T00:01:52.828Z,5.91
2016-03-15T00:02:52.816Z,5.81
2016-03-15T00:03:52.786Z,5.79
2016-03-15T00:04:52.790Z,5.86
2016-03-15T00:05:52.792Z,5.85
2016-03-15T00:06:52.769Z,5.82
2016-03-15T00:07:52.787Z,5.9
2016-03-15T00:08:52.758Z,5.83
2016-03-15T00:09:52.761Z,5.83
2016-03-15T00:10:52.748Z,5.81
2016-03-15T00:11:52.736Z,5.67
2016-03-15T00:12:52.723Z,5.74
2016-03-15T00:13:52.726Z,5.74
2016-03-15T00:14:52.696Z,5.67
2016-03-15T00:15:52.715Z,5.72
2016-03-15T00:16:52.687Z,5.71
2016-03-15T00:17:52.674Z,5.75
2016-03-15T00:18:52.676Z,5.72
2016-03-15T00:19:52.679Z,5.67
2016-03-15T00:20:52.665Z,5.54
2016-03-15T00:21:52.653Z,5.57
2016-03-15T00:22:52.656Z,5.53
2016-03-15T00:23:52.642Z,5.54
2016-03-15T00:24:52.631Z,5.64
2016-03-15T00:25:52.633Z,5.61
2016-03-15T00:26:52.619Z,5.53
2016-03-15T00:27:52.606Z,5.56
2016-03-15T00:28:52.594Z,5.43
2016-03-15T00:29:52.581Z,5.56
2016-03-15T00:30:52.584Z,5.54
2016-03-15T00:31:52.570Z,5.4
2016-03-15T00:32:52.558Z,5.46
2016-03-15T00:33:52.545Z,5.43
2016-03-15T00:34:52.611Z,5.45
2016-03-15T00:35:52.535Z,5.42
2016-03-15T00:36:52.554Z,5.46
2016-03-15T00:37:52.525Z,5.54
2016-03-15T00:38:52.497Z,5.49
2016-03-15T00:39:52.483Z,5.48
2016-03-15T00:40:52.502Z,5.42
2016-03-15T00:41:52.770Z,5.43
2016-03-15T00:42:52.476Z,5.45
2016-03-15T00:43:54.026Z,5.45
2016-03-15T00:44:52.466Z,5.36
2016-03-15T00:45:53.094Z,5.42
2016-03-15T00:46:53.018Z,5.42
2016-03-15T00:47:52.427Z,5.45
2016-03-15T00:48:52.429Z,5.42
2016-03-15T00:49:52.448Z,5.33
2016-03-15T00:50:52.405Z,5.21
2016-03-15T00:51:53.188Z,5.25
2016-03-15T00:52:52.394Z,5.17
2016-03-15T00:53:52.443Z,5.02
2016-03-15T00:54:52.383Z,5.02
2016-03-15T00:55:53.136Z,5
2016-03-15T00:56:52.363Z,4.96
2016-03-15T00:58:07.865Z,4.88
2016-03-15T00:58:53.649Z,4.91
2016-03-15T01:00:21.401Z,4.89
2016-03-15T01:01:52.625Z,4.85
2016-03-15T01:02:52.285Z,4.86
2016-03-15T01:03:52.287Z,4.82
2016-03-15T01:04:52.275Z,4.82
2016-03-15T01:05:52.277Z,4.7
2016-03-15T01:06:53.202Z,4.67
2016-03-15T01:07:52.986Z,4.78
2016-03-15T01:08:52.567Z,4.73
2016-03-15T01:09:52.225Z,4.65
2016-03-15T01:10:52.322Z,4.67
2016-03-15T01:11:52.387Z,4.62
2016-03-15T01:12:52.405Z,4.6
2016-03-15T01:13:52.189Z,4.62
2016-03-15T01:14:52.302Z,4.6
2016-03-15T01:15:52.163Z,4.66
2016-03-15T01:16:52.182Z,4.66
2016-03-15T01:17:52.153Z,4.67
2016-03-15T01:18:52.155Z,4.5
2016-03-15T01:19:52.143Z,4.55
2016-03-15T01:20:52.146Z,4.52
2016-03-15T01:21:52.133Z,4.48
2016-03-15T01:22:52.120Z,4.51
2016-03-15T01:23:52.107Z,4.55
2016-03-15T01:24:52.110Z,4.5
2016-03-15T01:25:52.081Z,4.51
2016-03-15T01:26:52.084Z,4.55
2016-03-15T01:27:52.071Z,4.65
2016-03-15T01:28:52.057Z,4.59
2016-03-15T01:29:52.060Z,4.6
2016-03-15T01:30:52.048Z,4.59
2016-03-15T01:31:52.034Z,4.58
2016-03-15T01:32:52.053Z,4.54
2016-03-15T01:33:52.009Z,4.47
2016-03-15T01:34:52.011Z,4.52
2016-03-15T01:35:51.999Z,4.51
2016-03-15T01:36:51.986Z,4.5
2016-03-15T01:37:51.972Z,4.51
2016-03-15T01:38:51.960Z,4.5
2016-03-15T01:39:51.978Z,4.51
2016-03-15T01:40:51.933Z,4.44
2016-03-15T01:41:51.953Z,4.54
2016-03-15T01:42:51.939Z,4.55
2016-03-15T01:43:51.911Z,4.5
2016-03-15T01:44:51.913Z,4.52
2016-03-15T01:45:51.916Z,4.52
2016-03-15T01:46:51.902Z,4.48
2016-03-15T01:47:51.875Z,4.45
2016-03-15T01:48:51.893Z,4.41
2016-03-15T01:49:51.863Z,4.36
2016-03-15T01:50:51.867Z,4.29
2016-03-15T01:51:51.854Z,4.24
2016-03-15T01:52:51.826Z,4.22
2016-03-15T01:53:51.829Z,4.27
2016-03-15T01:54:51.815Z,4.16
2016-03-15T01:55:51.802Z,4.18
2016-03-15T01:56:51.805Z,4.27
2016-03-15T01:57:51.792Z,4.26
2016-03-15T01:58:51.795Z,4.27
2016-03-15T01:59:51.766Z,4.23
2016-03-15T02:00:51.785Z,4.23
2016-03-15T02:01:51.756Z,4.27
2016-03-15T02:02:52.539Z,4.32
2016-03-15T02:03:51.981Z,4.3
2016-03-15T02:04:52.467Z,4.27
2016-03-15T02:05:52.298Z,4.24
2016-03-15T02:06:52.175Z,4.22
2016-03-15T02:07:51.584Z,4.26
2016-03-15T02:08:51.806Z,4.29
2016-03-15T02:09:51.497Z,4.22
2016-03-15T02:10:53.061Z,4.26
2016-03-15T02:11:51.658Z,4.3
2016-03-15T02:12:51.645Z,4.24
2016-03-15T02:13:51.632Z,4.2
2016-03-15T02:14:52.666Z,4.24
2016-03-15T02:15:51.653Z,4.22
2016-03-15T02:17:05.905Z,4.24
2016-03-15T02:17:52.611Z,4.2
2016-03-15T02:19:51.602Z,4.12
2016-03-15T02:20:51.855Z,4.08
2016-03-15T02:21:51.560Z,4.06
2016-03-15T02:22:51.578Z,4
2016-03-15T02:23:51.549Z,4.09
2016-03-15T02:24:51.537Z,4.06
2016-03-15T02:25:51.508Z,4.04
2016-03-15T02:26:52.323Z,4.02
2016-03-15T02:27:51.998Z,4.06
2016-03-15T02:28:51.484Z,4.08
2016-03-15T02:30:05.659Z,4.12
2016-03-15T02:30:51.787Z,4.11
2016-03-15T02:31:51.820Z,4.11
2016-03-15T02:32:51.464Z,4.12
2016-03-15T02:33:51.701Z,4.16
2016-03-15T02:34:51.454Z,4.15
2016-03-15T02:35:51.410Z,4.11
2016-03-15T02:36:51.413Z,4.15
2016-03-15T02:37:51.447Z,4.15
2016-03-15T02:38:51.387Z,4.14
2016-03-15T02:39:51.373Z,4.15
2016-03-15T02:40:51.376Z,4.18
2016-03-15T02:41:51.347Z,4.06
2016-03-15T02:42:51.366Z,4.06
2016-03-15T02:43:51.322Z,4.11
2016-03-15T02:44:51.324Z,4.09
2016-03-15T02:45:51.312Z,4.08
2016-03-15T02:46:51.330Z,4.11
2016-03-15T02:47:51.302Z,4.12
2016-03-15T02:48:51.289Z,4.08
2016-03-15T02:49:51.275Z,4.05
2016-03-15T02:50:51.278Z,4.12
2016-03-15T02:51:51.296Z,4.08
2016-03-15T02:52:51.268Z,4.18
2016-03-15T02:53:51.255Z,4.09
2016-03-15T02:54:51.227Z,4.06
2016-03-15T02:55:51.230Z,4.11
2016-03-15T02:56:51.201Z,4.18
2016-03-15T02:57:51.204Z,4.12
2016-03-15T02:58:51.190Z,4.08
2016-03-15T02:59:51.193Z,4.2
2016-03-15T03:00:51.180Z,4.12
2016-03-15T03:01:51.167Z,4.14
2016-03-15T03:02:51.154Z,4.15
2016-03-15T03:03:51.141Z,4.18
2016-03-15T03:04:51.128Z,4.15
2016-03-15T03:05:51.115Z,4.2
2016-03-15T03:06:51.118Z,4.16
2016-03-15T03:07:51.152Z,4.14
2016-03-15T03:08:51.093Z,4.2
2016-03-15T03:09:51.079Z,4.23
2016-03-15T03:10:51.067Z,4.22
2016-03-15T03:11:51.084Z,4.23
2016-03-15T03:12:51.056Z,4.23
2016-03-15T03:13:51.044Z,4.26
2016-03-15T03:14:51.014Z,4.18
2016-03-15T03:15:51.049Z,4.22
2016-03-15T03:16:51.004Z,4.06
2016-03-15T03:17:51.007Z,4.11
2016-03-15T03:18:50.978Z,4.16
2016-03-15T03:19:50.980Z,4.15
2016-03-15T03:20:53.469Z,4.18
2016-03-15T03:21:52.425Z,4.2
2016-03-15T03:22:51.021Z,4.18
2016-03-15T03:23:51.836Z,4.18
2016-03-15T03:24:51.136Z,4.15
2016-03-15T03:25:50.951Z,4.04
2016-03-15T03:26:50.922Z,4.09
2016-03-15T03:27:50.909Z,4.15
2016-03-15T03:28:50.912Z,4.12
2016-03-15T03:29:51.212Z,4.14
2016-03-15T03:30:52.449Z,4.11
2016-03-15T03:31:50.717Z,4.22
2016-03-15T03:32:50.859Z,4.16
2016-03-15T03:33:51.676Z,4.15
2016-03-15T03:34:50.834Z,4.18
2016-03-15T03:35:52.806Z,4.14
2016-03-15T03:36:51.309Z,4.2
2016-03-15T03:38:05.764Z,4.23
2016-03-15T03:38:50.782Z,4.16
2016-03-15T03:39:51.864Z,4.23
2016-03-15T03:40:50.772Z,4.23
2016-03-15T03:41:51.228Z,4.27
2016-03-15T03:42:50.761Z,4.36
2016-03-15T03:43:50.764Z,4.42
2016-03-15T03:44:50.720Z,4.4
2016-03-15T03:45:50.786Z,4.4
2016-03-15T03:46:50.710Z,4.44
2016-03-15T03:47:50.697Z,4.37
2016-03-15T03:48:51.138Z,4.4
2016-03-15T03:50:04.874Z,4.3
2016-03-15T03:50:50.877Z,4.36
2016-03-15T03:51:50.677Z,4.22
2016-03-15T03:52:50.758Z,4.32
2016-03-15T03:53:50.666Z,4.33
2016-03-15T03:54:50.622Z,4.27
2016-03-15T03:55:50.624Z,4.3
2016-03-15T03:56:50.613Z,4.33
2016-03-15T03:57:50.599Z,4.36
2016-03-15T03:58:50.601Z,4.27
2016-03-15T03:59:50.589Z,4.26
2016-03-15T04:00:50.560Z,4.26
2016-03-15T04:01:50.563Z,4.26
2016-03-15T04:02:50.551Z,4.24
2016-03-15T04:03:50.537Z,4.26
2016-03-15T04:04:50.540Z,4.29
2016-03-15T04:05:50.511Z,4.23
2016-03-15T04:06:50.514Z,4.26
2016-03-15T04:07:50.500Z,4.37
2016-03-15T04:08:50.488Z,4.42
2016-03-15T04:09:50.490Z,4.51
2016-03-15T04:10:50.478Z,4.51
2016-03-15T04:11:50.481Z,4.47
2016-03-15T04:12:50.452Z,4.33
2016-03-15T04:13:50.455Z,4.45
2016-03-15T04:14:50.426Z,4.41
2016-03-15T04:15:50.444Z,4.37
2016-03-15T04:16:50.416Z,4.48
2016-03-15T04:17:50.403Z,4.5
2016-03-15T04:18:50.405Z,4.44
2016-03-15T04:19:50.393Z,4.36
2016-03-15T04:20:50.400Z,4.44
2016-03-15T04:21:50.355Z,4.44
2016-03-15T04:22:50.374Z,4.42
2016-03-15T04:23:50.330Z,4.34
2016-03-15T04:24:50.333Z,4.33
2016-03-15T04:25:50.320Z,4.32
2016-03-15T04:26:50.338Z,4.37
2016-03-15T04:27:50.293Z,4.4
2016-03-15T04:28:50.313Z,4.36
2016-03-15T04:29:50.284Z,4.37
2016-03-15T04:30:50.286Z,4.27
2016-03-15T04:31:50.274Z,4.34
2016-03-15T04:32:50.260Z,4.36
2016-03-15T04:33:50.248Z,4.32
2016-03-15T04:34:50.223Z,4.37
2016-03-15T04:35:50.241Z,4.41
2016-03-15T04:36:50.196Z,4.41
2016-03-15T04:37:50.231Z,4.44
2016-03-15T04:38:50.187Z,4.36
2016-03-15T04:39:51.705Z,4.33
2016-03-15T04:40:51.146Z,4.34
2016-03-15T04:41:50.179Z,4.33
2016-03-15T04:42:50.713Z,4.32
2016-03-15T04:43:50.810Z,4.32
2016-03-15T04:44:50.765Z,4.36
2016-03-15T04:45:50.112Z,4.37
2016-03-15T04:46:50.146Z,4.36
2016-03-15T04:47:50.117Z,4.41
2016-03-15T04:48:50.340Z,4.36
2016-03-15T04:49:51.576Z,4.42
2016-03-15T04:50:50.094Z,4.44
2016-03-15T04:51:50.082Z,4.42
2016-03-15T04:52:50.756Z,4.37
2016-03-15T04:53:50.195Z,4.33
2016-03-15T04:55:04.230Z,4.41
2016-03-15T04:55:50.795Z,4.4
2016-03-15T04:56:50.016Z,4.37
2016-03-15T04:57:50.004Z,4.33
2016-03-15T04:58:50.006Z,4.36
2016-03-15T05:00:04.164Z,4.45
2016-03-15T05:00:50.512Z,4.37
2016-03-15T05:01:49.983Z,4.47
2016-03-15T05:02:49.969Z,4.5
2016-03-15T05:03:49.989Z,4.42
2016-03-15T05:04:50.038Z,4.44
2016-03-15T05:05:50.103Z,4.36
2016-03-15T05:06:49.919Z,4.37
2016-03-15T05:08:04.124Z,4.44
2016-03-15T05:09:49.911Z,4.36
2016-03-15T05:10:49.866Z,4.37
2016-03-15T05:11:49.994Z,4.37
2016-03-15T05:12:49.872Z,4.4
2016-03-15T05:13:49.859Z,4.4
2016-03-15T05:14:49.830Z,4.41
2016-03-15T05:15:49.849Z,4.36
2016-03-15T05:16:49.820Z,4.37
2016-03-15T05:17:49.823Z,4.37
2016-03-15T05:18:49.810Z,4.47
2016-03-15T05:19:49.797Z,4.37
2016-03-15T05:20:49.784Z,4.41
2016-03-15T05:21:49.787Z,4.51
2016-03-15T05:22:49.773Z,4.5
2016-03-15T05:23:49.746Z,4.5
2016-03-15T05:24:49.764Z,4.51
2016-03-15T05:25:49.734Z,4.48
2016-03-15T05:26:49.738Z,4.48
2016-03-15T05:27:49.709Z,4.47
2016-03-15T05:28:49.712Z,4.48
2016-03-15T05:29:49.699Z,4.52
2016-03-15T05:30:49.686Z,4.48
2016-03-15T05:31:49.689Z,4.51
2016-03-15T05:32:49.661Z,4.47
2016-03-15T05:33:49.663Z,4.52
2016-03-15T05:34:49.650Z,4.5
2016-03-15T05:35:49.637Z,4.51
2016-03-15T05:36:49.624Z,4.52
2016-03-15T05:37:49.611Z,4.47
2016-03-15T05:38:49.613Z,4.5
2016-03-15T05:39:49.601Z,4.44
2016-03-15T05:40:49.588Z,4.47
2016-03-15T05:41:49.575Z,4.54
2016-03-15T05:42:49.562Z,4.44
2016-03-15T05:43:49.549Z,4.47
2016-03-15T05:44:49.552Z,4.5
2016-03-15T05:45:49.554Z,4.51
2016-03-15T05:46:49.526Z,4.5
2016-03-15T05:47:49.528Z,4.48
2016-03-15T05:48:49.501Z,4.52
2016-03-15T05:49:49.503Z,4.55
2016-03-15T05:50:49.474Z,4.54
2016-03-15T05:51:49.493Z,4.6
2016-03-15T05:52:49.479Z,4.55
2016-03-15T05:53:49.451Z,4.55
2016-03-15T05:54:49.454Z,4.58
2016-03-15T05:55:49.456Z,4.6
2016-03-15T05:56:49.428Z,4.65
2016-03-15T05:57:49.446Z,4.6
2016-03-15T05:58:50.995Z,4.66
2016-03-15T05:59:50.514Z,4.62
2016-03-15T06:00:49.454Z,4.6
2016-03-15T06:01:50.300Z,4.59
2016-03-15T06:02:49.381Z,4.67
2016-03-15T06:03:49.353Z,4.62
2016-03-15T06:04:49.746Z,4.62
2016-03-15T06:05:49.358Z,4.62
2016-03-15T06:06:49.324Z,4.69
2016-03-15T06:07:49.639Z,4.67
2016-03-15T06:08:49.268Z,4.62
2016-03-15T06:09:49.364Z,4.69
2016-03-15T06:10:49.554Z,4.82
2016-03-15T06:11:49.359Z,4.73
2016-03-15T06:12:49.199Z,4.67
2016-03-15T06:13:50.978Z,4.78
2016-03-15T06:14:49.818Z,4.84
2016-03-15T06:15:49.143Z,4.88
2016-03-15T06:16:49.159Z,4.86
2016-03-15T06:17:49.128Z,4.89
2016-03-15T06:18:49.128Z,4.92
2016-03-15T06:19:49.362Z,5
2016-03-15T06:20:49.144Z,4.89
2016-03-15T06:21:49.067Z,4.96
2016-03-15T06:22:49.084Z,4.96
2016-03-15T06:23:49.259Z,4.97
2016-03-15T06:24:49.791Z,4.94
2016-03-15T06:25:49.387Z,4.99
2016-03-15T06:26:48.890Z,4.94
2016-03-15T06:27:49.204Z,4.97
2016-03-15T06:28:49.207Z,5.07
2016-03-15T06:29:49.023Z,5
2016-03-15T06:30:48.994Z,5.09
2016-03-15T06:31:48.997Z,5.06
2016-03-15T06:32:48.984Z,5.25
2016-03-15T06:33:48.970Z,5.25
2016-03-15T06:34:48.974Z,5.22
2016-03-15T06:35:48.976Z,5.21
2016-03-15T06:36:48.964Z,5.3
2016-03-15T06:37:48.934Z,5.39
2016-03-15T06:38:48.937Z,5.38
2016-03-15T06:39:48.908Z,5.45
2016-03-15T06:40:48.927Z,5.42
2016-03-15T06:41:48.899Z,5.57
2016-03-15T06:42:48.901Z,5.56
2016-03-15T06:43:48.905Z,5.61
2016-03-15T06:44:48.891Z,5.6
2016-03-15T06:45:48.863Z,5.6
2016-03-15T06:46:48.865Z,5.6
2016-03-15T06:47:48.883Z,5.56
2016-03-15T06:48:48.839Z,5.65
2016-03-15T06:49:48.857Z,5.63
2016-03-15T06:50:48.829Z,5.58
2016-03-15T06:51:48.815Z,5.58
2016-03-15T06:52:48.803Z,5.58
2016-03-15T06:53:48.806Z,5.57
2016-03-15T06:54:48.809Z,5.74
2016-03-15T06:55:48.779Z,5.78
2016-03-15T06:56:48.798Z,5.83
2016-03-15T06:57:48.770Z,5.99
2016-03-15T06:58:48.772Z,6.11
2016-03-15T06:59:48.790Z,6.17
2016-03-15T07:00:48.746Z,6.43
2016-03-15T07:01:48.749Z,6.56
2016-03-15T07:02:48.737Z,6.79
2016-03-15T07:03:48.739Z,6.87
2016-03-15T07:04:48.711Z,6.85
2016-03-15T07:05:48.729Z,6.8
2016-03-15T07:06:48.716Z,6.66
2016-03-15T07:07:48.722Z,6.64
2016-03-15T07:08:48.725Z,6.73
2016-03-15T07:09:48.696Z,6.64
2016-03-15T07:10:48.668Z,6.64
2016-03-15T07:11:48.671Z,6.55
2016-03-15T07:12:48.657Z,6.56
2016-03-15T07:13:48.676Z,6.54
2016-03-15T07:14:48.648Z,6.49
2016-03-15T07:15:48.651Z,6.4
2016-03-15T07:16:48.637Z,6.33
2016-03-15T07:17:49.437Z,6.22
2016-03-15T07:18:48.643Z,6.06
2016-03-15T07:19:50.098Z,6.09
2016-03-15T07:20:48.976Z,6.08
2016-03-15T07:21:49.009Z,6.09
2016-03-15T07:22:48.591Z,5.97
2016-03-15T07:23:48.922Z,6.11
2016-03-15T07:24:48.581Z,6.17
2016-03-15T07:25:48.567Z,6.21
2016-03-15T07:26:50.836Z,6.31
2016-03-15T07:27:49.480Z,6.46
2016-03-15T07:28:48.575Z,6.51
2016-03-15T07:29:48.563Z,6.44
2016-03-15T07:30:48.566Z,6.46
2016-03-15T07:31:48.536Z,6.4
2016-03-15T07:32:49.039Z,6.18
2016-03-15T07:33:49.777Z,6.19
2016-03-15T07:34:48.623Z,6.15
2016-03-15T07:35:49.173Z,6.12
2016-03-15T07:36:49.160Z,6.06
2016-03-15T07:37:48.740Z,6.06
2016-03-15T07:38:48.572Z,6.04
2016-03-15T07:39:48.496Z,6.04
2016-03-15T07:40:48.482Z,6.03
2016-03-15T07:41:48.470Z,6.01
2016-03-15T07:42:50.301Z,5.96
2016-03-15T07:43:48.443Z,6
2016-03-15T07:44:47.776Z,6.03
2016-03-15T07:45:48.434Z,5.99
2016-03-15T07:46:48.686Z,6.11
2016-03-15T07:47:48.721Z,6.14
2016-03-15T07:48:48.442Z,6.19
2016-03-15T07:49:48.414Z,6.27
2016-03-15T07:50:48.416Z,6.28
2016-03-15T07:51:48.403Z,6.33
2016-03-15T07:52:48.390Z,6.33
2016-03-15T07:53:48.393Z,6.28
2016-03-15T07:54:48.364Z,6.17
2016-03-15T07:55:48.383Z,6.09
2016-03-15T07:56:48.353Z,6.14
2016-03-15T07:57:48.356Z,6.08
2016-03-15T07:58:48.344Z,6.11
2016-03-15T07:59:48.346Z,6.14
2016-03-15T08:00:48.319Z,6.18
2016-03-15T08:01:48.321Z,6.12
2016-03-15T08:02:48.308Z,6.17
2016-03-15T08:03:48.138Z,6.08
2016-03-15T08:04:48.282Z,6.12
2016-03-15T08:05:48.300Z,6.12
2016-03-15T08:06:48.271Z,6.14
2016-03-15T08:07:48.258Z,6
2016-03-15T08:08:48.276Z,6.14
2016-03-15T08:09:48.264Z,6.08
2016-03-15T08:10:48.235Z,6.08
2016-03-15T08:11:48.238Z,6.11
2016-03-15T08:12:48.226Z,6.08
2016-03-15T08:13:48.228Z,6.09
2016-03-15T08:14:48.199Z,6.09
2016-03-15T08:15:48.218Z,6.08
2016-03-15T08:16:48.204Z,6.06
2016-03-15T08:17:48.192Z,5.99
2016-03-15T08:18:48.210Z,6.09
2016-03-15T08:19:48.181Z,6.06
2016-03-15T08:20:48.169Z,6.04
2016-03-15T08:21:48.171Z,6.09
2016-03-15T08:22:48.143Z,6.04
2016-03-15T08:23:48.146Z,6.01
2016-03-15T08:24:48.148Z,6.04
2016-03-15T08:25:48.135Z,5.99
2016-03-15T08:26:48.122Z,6.08
2016-03-15T08:27:48.094Z,6.03
2016-03-15T08:28:48.080Z,6
2016-03-15T08:29:48.084Z,5.93
2016-03-15T08:30:48.086Z,5.93
2016-03-15T08:31:48.072Z,5.9
2016-03-15T08:32:48.092Z,5.91
2016-03-15T08:33:48.078Z,5.82
2016-03-15T08:34:48.065Z,5.94
2016-03-15T08:35:48.038Z,5.96
2016-03-15T08:36:48.040Z,6
2016-03-15T08:37:48.043Z,5.99
2016-03-15T08:38:48.014Z,6.03
2016-03-15T08:39:49.063Z,6
2016-03-15T08:40:48.004Z,6
2016-03-15T08:41:47.991Z,6.04
2016-03-15T08:42:47.993Z,6.03
2016-03-15T08:43:47.965Z,6.06
2016-03-15T08:44:47.968Z,6.09
2016-03-15T08:45:50.142Z,6.09
2016-03-15T08:46:48.770Z,6.15
2016-03-15T08:47:48.398Z,6.14
2016-03-15T08:48:48.963Z,6.09
2016-03-15T08:49:48.529Z,6.21
2016-03-15T08:50:48.531Z,6.17
2016-03-15T08:52:02.220Z,6.25
2016-03-15T08:53:02.473Z,6.27
2016-03-15T08:54:17.039Z,6.21
2016-03-15T08:54:47.916Z,6.19
2016-03-15T08:55:47.873Z,6.21
2016-03-15T08:56:47.859Z,6.18
2016-03-15T08:57:47.877Z,6.19
2016-03-15T08:58:47.692Z,6.21
2016-03-15T08:59:47.852Z,6.3
2016-03-15T09:00:47.839Z,6.28
2016-03-15T09:01:47.997Z,6.06
2016-03-15T09:03:02.813Z,6.01
2016-03-15T09:04:02.769Z,5.97
2016-03-15T09:04:48.412Z,6.11
2016-03-15T09:05:47.805Z,6.06
2016-03-15T09:06:47.996Z,6.14
2016-03-15T09:07:47.952Z,6.25
2016-03-15T09:08:48.079Z,6.28
2016-03-15T09:09:47.784Z,6.36
2016-03-15T09:10:47.772Z,6.38
2016-03-15T09:11:47.774Z,6.4
2016-03-15T09:12:47.746Z,6.25
2016-03-15T09:13:47.749Z,6.3
2016-03-15T09:14:47.735Z,6.15
2016-03-15T09:15:47.738Z,6.14
2016-03-15T09:16:47.726Z,6.09
2016-03-15T09:17:47.712Z,6.06
2016-03-15T09:18:47.699Z,5.99
2016-03-15T09:19:47.702Z,6.12
2016-03-15T09:20:47.704Z,6.06
2016-03-15T09:21:47.693Z,6
2016-03-15T09:22:47.695Z,6.04
2016-03-15T09:23:47.650Z,5.97
2016-03-15T09:24:47.716Z,5.96
2016-03-15T09:25:47.656Z,6.01
2016-03-15T09:26:47.658Z,6.03
2016-03-15T09:27:47.630Z,6.03
2016-03-15T09:28:47.633Z,6
2016-03-15T09:29:47.603Z,5.93
2016-03-15T09:30:47.592Z,5.91
2016-03-15T09:31:47.609Z,5.94
2016-03-15T09:32:47.580Z,5.89
2016-03-15T09:33:47.584Z,5.79
2016-03-15T09:34:47.571Z,5.79
2016-03-15T09:35:47.557Z,5.76
2016-03-15T09:36:47.577Z,5.76
2016-03-15T09:37:47.563Z,5.68
2016-03-15T09:38:47.550Z,5.78
2016-03-15T09:39:47.522Z,5.75
2016-03-15T09:40:47.540Z,5.65
2016-03-15T09:41:47.496Z,5.6
2016-03-15T09:42:47.514Z,5.53
2016-03-15T09:43:47.501Z,5.51
2016-03-15T09:44:47.379Z,5.58
2016-03-15T09:45:47.490Z,5.61
2016-03-15T09:46:47.338Z,5.64
2016-03-15T09:47:47.465Z,5.71
2016-03-15T09:48:47.467Z,5.65
2016-03-15T09:49:47.471Z,5.65
2016-03-15T09:50:47.457Z,5.64
2016-03-15T09:51:47.444Z,5.54
2016-03-15T09:52:47.416Z,5.56
2016-03-15T09:53:47.403Z,5.61
2016-03-15T09:54:47.421Z,5.68
2016-03-15T09:55:48.768Z,5.64
2016-03-15T09:56:48.770Z,5.63
2016-03-15T09:57:48.242Z,5.71
2016-03-15T09:58:47.386Z,5.65
2016-03-15T09:59:48.044Z,5.72
2016-03-15T10:00:47.703Z,5.74
2016-03-15T10:01:47.362Z,5.89
2016-03-15T10:02:47.349Z,5.78
2016-03-15T10:03:47.336Z,5.85
2016-03-15T10:04:48.683Z,5.78
2016-03-15T10:05:48.044Z,5.78
2016-03-15T10:06:47.313Z,5.76
2016-03-15T10:07:47.316Z,5.79
2016-03-15T10:08:47.291Z,5.71
2016-03-15T10:09:47.294Z,5.65
2016-03-15T10:11:48.113Z,5.75
2016-03-15T10:12:47.256Z,5.64
2016-03-15T10:13:48.665Z,5.57
2016-03-15T10:15:47.795Z,5.54
2016-03-15T10:16:47.235Z,5.63
2016-03-15T10:17:47.270Z,5.56
2016-03-15T10:18:47.209Z,5.58
2016-03-15T10:19:47.196Z,5.65
2016-03-15T10:21:01.371Z,5.74
2016-03-15T10:21:47.467Z,5.75
2016-03-15T10:22:47.470Z,5.72
2016-03-15T10:23:47.176Z,5.67
2016-03-15T10:24:47.148Z,5.68
2016-03-15T10:25:47.150Z,5.68
2016-03-15T10:26:47.137Z,5.75
2016-03-15T10:27:47.125Z,5.76
2016-03-15T10:28:47.142Z,5.86
2016-03-15T10:29:47.114Z,5.81
2016-03-15T10:30:47.117Z,5.86
2016-03-15T10:31:47.088Z,5.85
2016-03-15T10:32:47.106Z,5.83
2016-03-15T10:33:47.078Z,5.85
2016-03-15T10:34:47.080Z,5.97
2016-03-15T10:35:47.083Z,5.9
2016-03-15T10:36:47.055Z,5.86
2016-03-15T10:37:47.073Z,5.83
2016-03-15T10:38:47.044Z,5.9
2016-03-15T10:39:47.032Z,5.85
2016-03-15T10:40:47.035Z,5.89
2016-03-15T10:41:47.021Z,5.81
2016-03-15T10:42:47.024Z,5.83
2016-03-15T10:43:47.011Z,5.83
2016-03-15T10:44:46.998Z,5.79
2016-03-15T10:45:46.985Z,5.83
2016-03-15T10:46:46.973Z,5.75
2016-03-15T10:47:46.975Z,5.83
2016-03-15T10:48:46.947Z,5.86
2016-03-15T10:49:46.949Z,5.85
2016-03-15T10:50:46.951Z,5.82
2016-03-15T10:51:46.954Z,5.86
2016-03-15T10:52:46.926Z,5.74
2016-03-15T10:53:46.944Z,5.81
2016-03-15T10:54:46.947Z,5.83
2016-03-15T10:55:46.903Z,5.75
2016-03-15T10:56:46.921Z,5.64
2016-03-15T10:57:46.892Z,5.76
2016-03-15T10:58:46.880Z,5.78
2016-03-15T10:59:46.851Z,5.74
2016-03-15T11:00:46.869Z,5.85
2016-03-15T11:01:46.856Z,5.83
2016-03-15T11:02:46.858Z,5.82
2016-03-15T11:03:46.831Z,5.82
2016-03-15T11:04:46.850Z,5.82
2016-03-15T11:05:46.820Z,5.93
2016-03-15T11:06:46.823Z,5.9
2016-03-15T11:07:46.794Z,5.99
2016-03-15T11:08:46.797Z,6.06
2016-03-15T11:09:46.768Z,6.04
2016-03-15T11:10:46.787Z,6.06
2016-03-15T11:11:46.758Z,6.12
2016-03-15T11:12:46.761Z,6.21
2016-03-15T11:13:46.764Z,6.34
2016-03-15T11:15:46.721Z,6.4
2016-03-15T11:16:46.724Z,6.34
2016-03-15T11:17:46.712Z,6.36
2016-03-15T11:18:46.886Z,6.52
2016-03-15T11:19:46.796Z,6.55
2016-03-15T11:20:46.704Z,6.58
2016-03-15T11:21:46.676Z,6.56
2016-03-15T11:22:46.663Z,6.55
2016-03-15T11:23:46.697Z,6.58
2016-03-15T11:24:48.981Z,6.55
2016-03-15T11:25:47.373Z,6.52
2016-03-15T11:26:47.939Z,6.48
2016-03-15T11:27:46.645Z,6.56
2016-03-15T11:28:47.414Z,6.55
2016-03-15T11:30:46.825Z,6.54
2016-03-15T11:31:46.844Z,6.58
2016-03-15T11:32:47.158Z,6.66
2016-03-15T11:33:46.942Z,6.67
2016-03-15T11:34:46.773Z,6.69
2016-03-15T11:35:46.713Z,6.62
2016-03-15T11:36:46.592Z,6.56
2016-03-15T11:37:46.563Z,6.51
2016-03-15T11:38:46.566Z,6.48
2016-03-15T11:39:48.053Z,6.38
2016-03-15T11:40:46.539Z,6.38
2016-03-15T11:41:46.558Z,6.31
2016-03-15T11:42:46.529Z,6.37
2016-03-15T11:43:46.985Z,6.3
2016-03-15T11:44:46.504Z,6.22
2016-03-15T11:45:46.506Z,6.19
2016-03-15T11:46:46.602Z,6.17
2016-03-15T11:47:46.496Z,6.12
2016-03-15T11:48:46.482Z,6.11
2016-03-15T11:49:46.485Z,6.12
2016-03-15T11:50:46.457Z,6.11
2016-03-15T11:51:46.475Z,6.04
2016-03-15T11:52:46.463Z,6.14
2016-03-15T11:53:46.465Z,6.22
2016-03-15T11:54:46.311Z,6.25
2016-03-15T11:55:46.409Z,6.37
2016-03-15T11:56:46.442Z,6.41
2016-03-15T11:57:46.413Z,6.37
2016-03-15T11:58:46.400Z,6.36
2016-03-15T11:59:46.387Z,6.44
2016-03-15T12:00:46.390Z,6.48
2016-03-15T12:01:46.377Z,6.61
2016-03-15T12:02:46.380Z,6.77
2016-03-15T12:03:46.367Z,6.85
2016-03-15T12:04:46.838Z,6.87
2016-03-15T12:05:46.356Z,6.89
2016-03-15T12:06:46.375Z,6.88
2016-03-15T12:07:46.346Z,6.98
2016-03-15T12:08:46.350Z,7.03
2016-03-15T12:09:46.352Z,7.02
2016-03-15T12:10:46.323Z,7.32
2016-03-15T12:11:46.295Z,7.43
2016-03-15T12:12:46.313Z,7.6
2016-03-15T12:13:46.284Z,7.63
2016-03-15T12:14:46.287Z,7.61
2016-03-15T12:15:46.274Z,7.68
2016-03-15T12:16:46.293Z,7.64
2016-03-15T12:17:46.279Z,7.58
2016-03-15T12:18:46.282Z,7.49
2016-03-15T12:19:46.285Z,7.48
2016-03-15T12:20:46.271Z,7.39
2016-03-15T12:21:46.259Z,7.4
2016-03-15T12:22:46.262Z,7.4
2016-03-15T12:23:46.248Z,7.42
2016-03-15T12:24:46.268Z,7.4
2016-03-15T12:25:46.223Z,7.35
2016-03-15T12:26:46.241Z,7.43
2016-03-15T12:27:46.198Z,7.35
2016-03-15T12:28:46.215Z,7.46
2016-03-15T12:29:46.186Z,7.45
2016-03-15T12:30:46.206Z,7.46
2016-03-15T12:31:46.192Z,7.45
2016-03-15T12:32:46.179Z,7.45
2016-03-15T12:33:47.322Z,7.42
2016-03-15T12:34:47.809Z,7.31
2016-03-15T12:35:47.750Z,7.23
2016-03-15T12:36:46.893Z,7.07
2016-03-15T12:37:46.161Z,6.99
2016-03-15T12:38:46.149Z,7.05
2016-03-15T12:39:46.151Z,7.03
2016-03-15T12:40:46.139Z,7.09
2016-03-15T12:41:46.219Z,7.02
2016-03-15T12:42:47.815Z,7.16
2016-03-15T12:43:46.819Z,7.21
2016-03-15T12:44:46.118Z,7.27
2016-03-15T12:45:46.510Z,7.34
2016-03-15T12:46:46.921Z,7.23
2016-03-15T12:47:46.563Z,7.25
2016-03-15T12:49:00.519Z,7.27
2016-03-15T12:49:48.054Z,7.3
2016-03-15T12:50:47.102Z,7.21
2016-03-15T12:51:46.059Z,7.17
2016-03-15T12:52:46.545Z,7.17
2016-03-15T12:53:46.517Z,7.2
2016-03-15T12:54:46.081Z,7.1
2016-03-15T12:55:46.038Z,7.2
2016-03-15T12:56:46.041Z,7.15
2016-03-15T12:57:46.012Z,7.07
2016-03-15T12:58:46.015Z,7.13
2016-03-15T12:59:47.174Z,7.02
2016-03-15T13:00:46.208Z,7.09
2016-03-15T13:02:46.291Z,7.09
2016-03-15T13:03:46.356Z,7.02
2016-03-15T13:04:45.984Z,7.09
2016-03-15T13:05:45.987Z,6.98
2016-03-15T13:06:45.974Z,6.97
2016-03-15T13:07:45.960Z,6.94
2016-03-15T13:08:45.947Z,7.03
2016-03-15T13:09:45.919Z,6.85
2016-03-15T13:10:45.921Z,6.81
2016-03-15T13:11:45.941Z,6.94
2016-03-15T13:12:45.927Z,6.99
2016-03-15T13:13:45.914Z,6.97
2016-03-15T13:14:45.917Z,6.84
2016-03-15T13:15:45.888Z,6.87
2016-03-15T13:16:45.891Z,6.94
2016-03-15T13:17:45.894Z,6.94
2016-03-15T13:18:45.896Z,6.98
2016-03-15T13:19:45.868Z,7.02
2016-03-15T13:20:45.715Z,7.06
2016-03-15T13:21:45.843Z,7.03
2016-03-15T13:22:45.845Z,7.15
2016-03-15T13:23:45.848Z,7.17
2016-03-15T13:24:45.819Z,7.23
2016-03-15T13:25:45.821Z,7.39
2016-03-15T13:26:45.823Z,7.49
2016-03-15T13:27:45.843Z,7.4
2016-03-15T13:28:45.829Z,7.43
2016-03-15T13:29:45.801Z,7.58